Time;durP1;ratioP1;P1;durP2;ratioP2;P2;SDS_P1;SDS_P2;PMS_P1;PMS_P2;Temp;Humidity;BMP_temperature;BMP_pressure;BME280_temperature;BME280_humidity;BME280_pressure;Samples;Min_cycle;Max_cycle;Signal;HPM_P1;HPM_P2
2021/01/28 00:00:42;;;;;;;19.00;7.93;;;;;;;;;;5111365;28;20479;-63
2021/01/28 00:03:10;;;;;;;17.15;6.28;;;;;;;;;;5112205;28;20081;-63
2021/01/28 00:05:37;;;;;;;16.23;7.63;;;;;;;;;;5111239;28;20391;-63
2021/01/28 00:08:04;;;;;;;10.15;6.00;;;;;;;;;;5112691;28;20024;-62
2021/01/28 00:10:31;;;;;;;14.18;6.78;;;;;;;;;;5112320;28;20098;-62
2021/01/28 00:12:58;;;;;;;11.23;6.28;;;;;;;;;;5111173;28;20051;-62
2021/01/28 00:15:26;;;;;;;10.82;5.93;;;;;;;;;;5111337;28;20036;-62
2021/01/28 00:17:52;;;;;;;13.30;7.63;;;;;;;;;;5112130;28;20027;-62
2021/01/28 00:20:20;;;;;;;17.83;9.63;;;;;;;;;;5111188;28;20035;-62
2021/01/28 00:22:46;;;;;;;13.02;7.65;;;;;;;;;;5112463;28;20026;-62
2021/01/28 00:25:15;;;;;;;13.25;6.82;;;;;;;;;;5110682;28;20458;-62
2021/01/28 00:27:41;;;;;;;19.13;7.60;;;;;;;;;;5112293;28;20036;-62
2021/01/28 00:30:09;;;;;;;17.10;6.85;;;;;;;;;;5111307;28;20092;-63
2021/01/28 00:32:35;;;;;;;16.88;7.45;;;;;;;;;;5111994;28;20020;-62
2021/01/28 00:35:02;;;;;;;19.88;8.93;;;;;;;;;;5112374;28;20502;-62
2021/01/28 00:37:28;;;;;;;13.95;7.57;;;;;;;;;;5110886;28;20024;-62
2021/01/28 00:39:55;;;;;;;13.90;4.60;;;;;;;;;;5111897;28;20475;-63
2021/01/28 00:42:22;;;;;;;14.80;5.55;;;;;;;;;;5112189;28;20024;-62
2021/01/28 00:44:48;;;;;;;10.05;5.65;;;;;;;;;;5115748;28;20395;-64
2021/01/28 00:47:14;;;;;;;13.27;6.68;;;;;;;;;;5116249;28;20016;-63
2021/01/28 00:49:40;;;;;;;11.93;5.75;;;;;;;;;;5116228;28;20096;-62
2021/01/28 00:52:07;;;;;;;12.27;6.60;;;;;;;;;;5114350;28;20471;-63
2021/01/28 00:54:33;;;;;;;15.02;6.78;;;;;;;;;;5115982;28;20032;-62
2021/01/28 00:56:59;;;;;;;15.73;7.63;;;;;;;;;;5114678;28;20023;-64
2021/01/28 00:59:25;;;;;;;15.45;6.82;;;;;;;;;;5114157;28;20024;-62
2021/01/28 01:01:51;;;;;;;15.90;6.57;;;;;;;;;;5115885;28;20016;-62
2021/01/28 01:04:17;;;;;;;16.63;7.88;;;;;;;;;;5114464;28;20028;-62
2021/01/28 01:06:43;;;;;;;15.73;8.98;;;;;;;;;;5115368;28;20022;-62
2021/01/28 01:09:10;;;;;;;16.00;7.13;;;;;;;;;;5115894;28;20036;-62
2021/01/28 01:11:36;;;;;;;17.08;7.85;;;;;;;;;;5114186;28;20020;-62
2021/01/28 01:14:02;;;;;;;14.27;6.30;;;;;;;;;;5115238;28;20035;-65
2021/01/28 01:16:28;;;;;;;11.40;5.72;;;;;;;;;;5115582;28;20526;-62
2021/01/28 01:18:54;;;;;;;11.82;5.78;;;;;;;;;;5114114;28;20027;-62
2021/01/28 01:21:21;;;;;;;12.23;5.82;;;;;;;;;;5113905;28;20431;-62
2021/01/28 01:23:47;;;;;;;8.00;3.88;;;;;;;;;;5115426;28;20099;-62
2021/01/28 01:26:13;;;;;;;21.15;5.30;;;;;;;;;;5115389;28;20081;-62
2021/01/28 01:28:39;;;;;;;9.63;4.60;;;;;;;;;;5114817;28;20487;-62
2021/01/28 01:31:05;;;;;;;14.48;5.50;;;;;;;;;;5115180;28;20035;-62
2021/01/28 01:33:32;;;;;;;14.10;5.50;;;;;;;;;;5115346;28;20026;-62
2021/01/28 01:35:58;;;;;;;11.98;4.95;;;;;;;;;;5114816;28;20024;-62
2021/01/28 01:38:24;;;;;;;11.38;4.88;;;;;;;;;;5115127;28;20031;-62
2021/01/28 01:40:52;;;;;;;14.88;5.28;;;;;;;;;;5114981;28;20097;-62
2021/01/28 01:43:19;;;;;;;18.75;5.55;;;;;;;;;;5114587;28;20032;-62
2021/01/28 01:45:46;;;;;;;8.50;4.70;;;;;;;;;;5114993;28;20027;-62
2021/01/28 01:48:33;;;;;;;19.38;6.72;;;;;;;;;;5114576;28;20075;-62
2021/01/28 01:51:06;;;;;;;10.13;4.05;;;;;;;;;;5115009;28;20491;-62
2021/01/28 01:53:41;;;;;;;9.25;4.65;;;;;;;;;;5114344;28;20034;-62
2021/01/28 01:56:27;;;;;;;14.15;5.90;;;;;;;;;;5114403;28;20028;-62
2021/01/28 01:58:59;;;;;;;16.05;4.82;;;;;;;;;;5114749;28;20016;-62
2021/01/28 02:01:26;;;;;;;9.45;4.82;;;;;;;;;;5114808;28;20030;-62
2021/01/28 02:03:53;;;;;;;14.25;6.18;;;;;;;;;;5114245;28;20023;-62
2021/01/28 02:06:23;;;;;;;9.23;5.03;;;;;;;;;;5114589;28;20426;-61
2021/01/28 02:08:51;;;;;;;11.07;4.38;;;;;;;;;;5113509;28;20055;-62
2021/01/28 02:11:17;;;;;;;11.25;4.88;;;;;;;;;;5112890;28;20107;-62
2021/01/28 02:13:45;;;;;;;13.77;5.82;;;;;;;;;;5114409;28;20020;-62
2021/01/28 02:16:12;;;;;;;13.38;5.60;;;;;;;;;;5112646;28;20082;-62
2021/01/28 02:18:38;;;;;;;11.32;4.25;;;;;;;;;;5114190;28;20019;-62
2021/01/28 02:21:25;;;;;;;8.45;4.47;;;;;;;;;;5114290;28;20027;-62
2021/01/28 02:23:54;;;;;;;12.23;5.00;;;;;;;;;;5113821;28;20039;-62
2021/01/28 02:26:20;;;;;;;8.25;3.90;;;;;;;;;;5114175;28;20016;-62
2021/01/28 02:28:46;;;;;;;8.95;3.95;;;;;;;;;;5113999;28;20065;-63
2021/01/28 02:31:12;;;;;;;13.00;4.35;;;;;;;;;;5113968;28;20503;-62
2021/01/28 02:33:41;;;;;;;8.60;4.40;;;;;;;;;;5113917;28;20036;-62
2021/01/28 02:36:08;;;;;;;10.90;4.30;;;;;;;;;;5113910;28;20031;-62
2021/01/28 02:38:34;;;;;;;10.27;4.55;;;;;;;;;;5113542;28;20051;-62
2021/01/28 02:41:01;;;;;;;10.75;4.30;;;;;;;;;;5112524;28;20031;-62
2021/01/28 02:43:27;;;;;;;13.60;4.60;;;;;;;;;;5113829;28;20099;-62
2021/01/28 02:46:01;;;;;;;8.75;4.40;;;;;;;;;;5113448;28;20443;-62
2021/01/28 02:48:27;;;;;;;7.70;3.97;;;;;;;;;;5113867;28;20020;-62
2021/01/28 02:50:53;;;;;;;7.68;3.70;;;;;;;;;;5113876;28;20102;-62
2021/01/28 02:53:19;;;;;;;11.15;4.43;;;;;;;;;;5113278;28;20016;-62
2021/01/28 02:55:45;;;;;;;8.15;4.00;;;;;;;;;;5113506;28;20043;-62
2021/01/28 02:58:12;;;;;;;8.70;4.30;;;;;;;;;;5112288;28;20106;-62
2021/01/28 03:00:38;;;;;;;9.13;4.13;;;;;;;;;;5113195;28;20035;-61
2021/01/28 03:03:08;;;;;;;12.02;5.18;;;;;;;;;;5113531;28;20046;-62
2021/01/28 03:05:34;;;;;;;16.15;5.90;;;;;;;;;;5112392;28;20020;-63
2021/01/28 03:08:01;;;;;;;14.38;5.30;;;;;;;;;;5113283;28;20049;-62
2021/01/28 03:10:27;;;;;;;9.00;4.50;;;;;;;;;;5113454;28;20107;-62
2021/01/28 03:12:53;;;;;;;9.13;4.13;;;;;;;;;;5111637;28;20084;-63
2021/01/28 03:15:22;;;;;;;10.68;4.35;;;;;;;;;;5113249;28;20027;-62
2021/01/28 03:17:49;;;;;;;8.75;5.03;;;;;;;;;;5111887;28;20485;-62
2021/01/28 03:20:15;;;;;;;13.90;4.25;;;;;;;;;;5112775;28;20016;-62
2021/01/28 03:22:41;;;;;;;9.95;4.43;;;;;;;;;;5113165;28;20502;-63
2021/01/28 03:25:09;;;;;;;10.25;4.68;;;;;;;;;;5113065;28;20028;-62
2021/01/28 03:27:36;;;;;;;14.52;4.90;;;;;;;;;;5111319;28;20044;-62
2021/01/28 03:30:05;;;;;;;12.18;4.82;;;;;;;;;;5111843;28;20035;-62
2021/01/28 03:32:31;;;;;;;13.20;5.75;;;;;;;;;;5113144;28;20093;-62
2021/01/28 03:34:57;;;;;;;15.00;5.05;;;;;;;;;;5112722;28;20019;-63
2021/01/28 03:37:23;;;;;;;10.50;4.35;;;;;;;;;;5112965;28;20515;-62
2021/01/28 03:39:49;;;;;;;13.05;4.97;;;;;;;;;;5112990;28;20432;-62
2021/01/28 03:42:15;;;;;;;9.52;5.00;;;;;;;;;;5112520;28;20030;-62
2021/01/28 03:44:42;;;;;;;10.10;5.35;;;;;;;;;;5111608;28;20026;-62
2021/01/28 03:47:08;;;;;;;16.73;6.18;;;;;;;;;;5112876;28;20403;-62
2021/01/28 03:49:34;;;;;;;17.33;6.05;;;;;;;;;;5112575;28;20039;-63
2021/01/28 03:52:00;;;;;;;13.00;5.43;;;;;;;;;;5113082;28;20019;-63
2021/01/28 03:54:26;;;;;;;8.43;4.45;;;;;;;;;;5112831;28;20027;-62
2021/01/28 03:56:52;;;;;;;12.00;5.68;;;;;;;;;;5112338;28;20536;-63
2021/01/28 03:59:19;;;;;;;11.57;7.00;;;;;;;;;;5111434;28;20031;-62
2021/01/28 04:01:45;;;;;;;14.05;7.43;;;;;;;;;;5111053;28;20076;-62
2021/01/28 04:04:11;;;;;;;14.48;6.00;;;;;;;;;;5112734;28;20039;-62
2021/01/28 04:06:37;;;;;;;13.15;6.28;;;;;;;;;;5112628;28;20123;-62
2021/01/28 04:09:03;;;;;;;14.00;6.75;;;;;;;;;;5110972;28;20031;-62
2021/01/28 04:11:29;;;;;;;19.27;8.48;;;;;;;;;;5112775;28;20024;-62
2021/01/28 04:13:56;;;;;;;19.75;10.75;;;;;;;;;;5112593;28;20110;-62
2021/01/28 04:16:22;;;;;;;21.65;9.00;;;;;;;;;;5112199;28;20376;-62
2021/01/28 04:18:48;;;;;;;21.20;11.75;;;;;;;;;;5116277;28;20023;-62
2021/01/28 04:21:14;;;;;;;24.15;13.38;;;;;;;;;;5116624;28;20028;-62
2021/01/28 04:23:40;;;;;;;21.80;10.43;;;;;;;;;;5116285;28;20059;-63
2021/01/28 04:26:06;;;;;;;21.63;11.32;;;;;;;;;;5116523;28;20429;-63
2021/01/28 04:28:33;;;;;;;19.05;8.68;;;;;;;;;;5116319;28;20043;-62
2021/01/28 04:30:59;;;;;;;21.58;10.00;;;;;;;;;;5115078;28;20066;-62
2021/01/28 04:33:26;;;;;;;20.45;10.40;;;;;;;;;;5116351;28;20081;-63
2021/01/28 04:35:52;;;;;;;19.35;6.90;;;;;;;;;;5115043;28;20100;-62
2021/01/28 04:38:18;;;;;;;17.25;7.40;;;;;;;;;;5115922;28;20043;-62
2021/01/28 04:40:47;;;;;;;11.73;4.97;;;;;;;;;;5116248;28;20106;-62
2021/01/28 04:43:13;;;;;;;14.68;8.07;;;;;;;;;;5116234;28;20431;-62
2021/01/28 04:45:40;;;;;;;18.73;7.38;;;;;;;;;;5115759;28;20471;-62
2021/01/28 04:48:07;;;;;;;12.13;5.88;;;;;;;;;;5114781;28;20027;-62
2021/01/28 04:50:37;;;;;;;14.45;6.30;;;;;;;;;;5116401;28;20020;-62
2021/01/28 04:53:06;;;;;;;15.38;6.93;;;;;;;;;;5115737;28;20144;-62
2021/01/28 04:55:35;;;;;;;27.55;8.70;;;;;;;;;;5115958;28;20103;-63
2021/01/28 04:58:02;;;;;;;14.65;8.50;;;;;;;;;;5115534;28;20016;-62
2021/01/28 05:00:28;;;;;;;23.77;10.35;;;;;;;;;;5115947;28;20410;-63
2021/01/28 05:02:59;;;;;;;21.05;12.52;;;;;;;;;;5115957;28;20020;-63
2021/01/28 05:05:25;;;;;;;18.20;8.65;;;;;;;;;;5115657;28;20020;-63
2021/01/28 05:07:52;;;;;;;16.25;10.13;;;;;;;;;;5114648;28;20031;-63
2021/01/28 05:10:18;;;;;;;26.45;12.18;;;;;;;;;;5115880;28;20035;-63
2021/01/28 05:12:53;;;;;;;24.05;11.75;;;;;;;;;;5114107;28;20015;-64
2021/01/28 05:15:21;;;;;;;24.02;11.65;;;;;;;;;;5115742;28;20047;-63
2021/01/28 05:17:57;;;;;;;17.88;8.77;;;;;;;;;;5115637;28;20016;-63
2021/01/28 05:20:23;;;;;;;18.83;9.20;;;;;;;;;;5115269;28;20390;-63
2021/01/28 05:23:10;;;;;;;30.27;12.70;;;;;;;;;;5115501;28;20502;-63
2021/01/28 05:25:39;;;;;;;20.98;11.15;;;;;;;;;;5115531;28;20016;-64
2021/01/28 05:28:23;;;;;;;26.80;12.50;;;;;;;;;;5114756;28;20104;-63
2021/01/28 05:30:49;;;;;;;25.50;11.80;;;;;;;;;;5115227;28;20484;-63
2021/01/28 05:33:43;;;;;;;29.27;13.55;;;;;;;;;;5115034;28;20094;-64
2021/01/28 05:36:18;;;;;;;37.00;16.38;;;;;;;;;;5113118;28;20040;-63
2021/01/28 05:38:48;;;;;;;27.67;13.55;;;;;;;;;;5115198;28;20094;-63
2021/01/28 05:41:34;;;;;;;22.13;11.15;;;;;;;;;;5113436;28;20430;-63
2021/01/28 05:44:14;;;;;;;25.50;11.77;;;;;;;;;;5114904;28;20031;-63
2021/01/28 05:46:40;;;;;;;20.40;10.82;;;;;;;;;;5115003;28;20069;-63
2021/01/28 05:49:12;;;;;;;17.83;9.52;;;;;;;;;;5114607;28;20136;-62
2021/01/28 05:51:42;;;;;;;17.45;10.25;;;;;;;;;;5115129;28;20019;-63
2021/01/28 05:54:17;;;;;;;15.63;8.32;;;;;;;;;;5114654;28;20024;-63
2021/01/28 05:57:02;;;;;;;24.88;12.80;;;;;;;;;;5114891;28;20023;-63
2021/01/28 05:59:37;;;;;;;39.20;19.92;;;;;;;;;;5114824;28;20387;-63
2021/01/28 06:02:08;;;;;;;39.08;21.48;;;;;;;;;;5113081;28;20027;-62
2021/01/28 06:04:42;;;;;;;37.55;18.48;;;;;;;;;;5113256;28;20031;-63
2021/01/28 06:07:19;;;;;;;32.33;18.40;;;;;;;;;;5114413;28;20080;-62
2021/01/28 06:09:45;;;;;;;35.85;17.23;;;;;;;;;;5114163;28;20035;-63
2021/01/28 06:12:14;;;;;;;30.10;15.02;;;;;;;;;;5114600;28;20050;-63
2021/01/28 06:14:40;;;;;;;28.95;14.30;;;;;;;;;;5114348;28;20077;-62
2021/01/28 06:17:15;;;;;;;23.00;11.57;;;;;;;;;;5091668;28;20081;-61
2021/01/28 06:20:01;;;;;;;40.92;20.17;;;;;;;;;;5088595;28;20548;-63
2021/01/28 06:22:38;;;;;;;33.67;17.25;;;;;;;;;;5094647;28;20043;-62
2021/01/28 06:25:24;;;;;;;33.72;19.27;;;;;;;;;;5089700;28;20028;-63
2021/01/28 06:28:26;;;;;;;37.85;21.23;;;;;;;;;;5093452;28;20055;-61
2021/01/28 06:30:52;;;;;;;35.17;21.30;;;;;;;;;;5032956;28;20045;-64
2021/01/28 06:33:28;;;;;;;36.17;18.65;;;;;;;;;;5092514;28;20047;-61
2021/01/28 06:35:57;;;;;;;70.43;31.92;;;;;;;;;;5111588;28;20483;-62
2021/01/28 06:38:42;;;;;;;90.50;42.03;;;;;;;;;;5113207;28;20034;-62
2021/01/28 06:41:20;;;;;;;76.95;33.53;;;;;;;;;;5112182;28;20481;-63
2021/01/28 06:43:46;;;;;;;75.00;35.10;;;;;;;;;;5112100;28;20031;-63
2021/01/28 06:46:27;;;;;;;57.75;30.13;;;;;;;;;;5111606;28;20046;-64
2021/01/28 06:48:55;;;;;;;47.72;27.75;;;;;;;;;;5108960;28;20043;-63
2021/01/28 06:51:28;;;;;;;45.40;23.67;;;;;;;;;;5086779;28;20479;-64
2021/01/28 06:54:03;;;;;;;48.33;26.88;;;;;;;;;;5111006;28;20015;-65
2021/01/28 06:56:32;;;;;;;42.47;22.70;;;;;;;;;;5111060;28;20023;-63
2021/01/28 06:58:58;;;;;;;27.50;15.82;;;;;;;;;;5098231;28;20027;-65
2021/01/28 07:01:37;;;;;;;23.27;14.30;;;;;;;;;;5094766;28;20072;-65
2021/01/28 07:04:13;;;;;;;33.40;16.92;;;;;;;;;;5113294;28;20038;-62
2021/01/28 07:06:42;;;;;;;30.63;16.23;;;;;;;;;;5106996;28;20725;-62
2021/01/28 07:09:13;;;;;;;32.22;17.67;;;;;;;;;;5089423;28;20075;-62
2021/01/28 07:11:41;;;;;;;37.92;19.58;;;;;;;;;;5090768;28;20027;-63
2021/01/28 07:14:08;;;;;;;39.03;19.52;;;;;;;;;;5094769;28;20019;-62
2021/01/28 07:16:34;;;;;;;27.35;15.07;;;;;;;;;;5103796;28;20148;-63
2021/01/28 07:19:06;;;;;;;30.38;18.05;;;;;;;;;;5101412;28;20024;-63
2021/01/28 07:21:34;;;;;;;35.85;18.02;;;;;;;;;;5086026;28;20500;-62
2021/01/28 07:24:11;;;;;;;36.75;19.75;;;;;;;;;;5092689;28;20039;-63
2021/01/28 07:26:48;;;;;;;32.28;17.70;;;;;;;;;;5091409;28;20023;-63
2021/01/28 07:29:34;;;;;;;36.53;20.23;;;;;;;;;;5090886;28;20035;-63
2021/01/28 07:32:01;;;;;;;31.10;15.95;;;;;;;;;;5092497;28;20035;-62
2021/01/28 07:34:27;;;;;;;26.50;13.57;;;;;;;;;;5092055;28;20083;-62
2021/01/28 07:36:59;;;;;;;25.55;12.75;;;;;;;;;;5092176;28;20021;-62
2021/01/28 07:39:31;;;;;;;22.42;9.55;;;;;;;;;;5091073;28;20391;-62
2021/01/28 07:42:03;;;;;;;25.40;11.80;;;;;;;;;;5091621;28;20059;-63
2021/01/28 07:44:29;;;;;;;16.35;7.47;;;;;;;;;;5091907;28;20025;-62
2021/01/28 07:46:58;;;;;;;14.95;7.05;;;;;;;;;;5091628;28;20032;-62
2021/01/28 07:49:32;;;;;;;22.42;9.30;;;;;;;;;;5090598;28;20032;-62
2021/01/28 07:52:01;;;;;;;15.48;7.93;;;;;;;;;;5090344;28;20020;-62
2021/01/28 07:54:30;;;;;;;14.00;8.13;;;;;;;;;;5092085;28;20031;-62
2021/01/28 07:57:00;;;;;;;16.85;9.18;;;;;;;;;;5091682;28;20515;-62
2021/01/28 07:59:38;;;;;;;18.80;8.73;;;;;;;;;;5091863;28;20483;-61
2021/01/28 08:02:22;;;;;;;15.23;8.73;;;;;;;;;;5090239;28;20024;-62
2021/01/28 08:04:51;;;;;;;21.35;11.10;;;;;;;;;;5087803;28;20157;-62
2021/01/28 08:07:29;;;;;;;26.98;13.98;;;;;;;;;;5088967;28;20481;-61
2021/01/28 08:09:57;;;;;;;20.60;10.07;;;;;;;;;;5091032;28;20036;-62
2021/01/28 08:12:24;;;;;;;25.20;12.35;;;;;;;;;;5091896;28;20376;-61
2021/01/28 08:14:53;;;;;;;17.45;9.02;;;;;;;;;;5091279;28;20031;-62
2021/01/28 08:17:22;;;;;;;16.50;8.80;;;;;;;;;;5091707;28;20457;-61
2021/01/28 08:19:48;;;;;;;21.02;9.88;;;;;;;;;;5091389;28;20032;-61
2021/01/28 08:22:16;;;;;;;26.90;14.40;;;;;;;;;;5090075;28;20024;-61
2021/01/28 08:24:52;;;;;;;16.33;10.18;;;;;;;;;;5091218;28;20056;-61
2021/01/28 08:27:20;;;;;;;22.88;12.20;;;;;;;;;;5090283;28;20403;-60
2021/01/28 08:30:00;;;;;;;22.15;12.98;;;;;;;;;;5090511;28;20062;-61
2021/01/28 08:32:30;;;;;;;25.17;11.73;;;;;;;;;;5091003;28;20020;-61
2021/01/28 08:35:17;;;;;;;25.10;12.90;;;;;;;;;;5086954;28;20053;-61
2021/01/28 08:37:43;;;;;;;28.23;14.20;;;;;;;;;;5070400;28;20074;-60
2021/01/28 08:40:21;;;;;;;41.03;20.70;;;;;;;;;;5100154;28;20054;-61
2021/01/28 08:42:48;;;;;;;21.20;12.13;;;;;;;;;;5087696;28;20030;-60
2021/01/28 08:45:29;;;;;;;19.17;9.85;;;;;;;;;;5104710;28;20027;-60
2021/01/28 08:47:56;;;;;;;24.58;13.20;;;;;;;;;;5111078;28;20089;-61
2021/01/28 08:50:26;;;;;;;17.02;8.93;;;;;;;;;;5109518;28;20031;-61
2021/01/28 08:52:53;;;;;;;19.00;8.25;;;;;;;;;;5111508;28;20027;-61
2021/01/28 08:55:20;;;;;;;15.27;6.93;;;;;;;;;;5111933;28;20050;-60
2021/01/28 08:57:46;;;;;;;17.27;8.35;;;;;;;;;;5111288;28;20035;-60
2021/01/28 09:00:13;;;;;;;12.07;7.13;;;;;;;;;;5110947;28;20030;-60
2021/01/28 09:02:43;;;;;;;15.32;7.38;;;;;;;;;;5101533;28;20143;-61
2021/01/28 09:05:09;;;;;;;14.55;8.23;;;;;;;;;;5095278;28;20119;-61
2021/01/28 09:07:53;;;;;;;13.00;6.57;;;;;;;;;;5094617;28;20028;-61
2021/01/28 09:10:23;;;;;;;10.65;6.93;;;;;;;;;;5085162;28;20035;-62
2021/01/28 09:12:50;;;;;;;16.45;6.38;;;;;;;;;;5089924;28;20024;-62
2021/01/28 09:15:24;;;;;;;13.60;7.85;;;;;;;;;;5088921;28;20016;-62
2021/01/28 09:17:51;;;;;;;17.23;8.60;;;;;;;;;;5088368;28;20078;-61
2021/01/28 09:20:28;;;;;;;10.63;5.47;;;;;;;;;;5088938;28;20024;-61
2021/01/28 09:23:14;;;;;;;24.25;13.10;;;;;;;;;;5083079;28;20024;-61
2021/01/28 09:25:41;;;;;;;10.65;5.20;;;;;;;;;;5073636;28;20020;-62
2021/01/28 09:28:08;;;;;;;14.18;6.60;;;;;;;;;;5073063;28;20488;-62
2021/01/28 09:30:42;;;;;;;14.80;7.57;;;;;;;;;;5074396;28;20498;-61
2021/01/28 09:33:27;;;;;;;13.05;7.72;;;;;;;;;;5090021;28;20024;-61
2021/01/28 09:36:19;;;;;;;14.10;7.20;;;;;;;;;;5092016;28;20454;-61
2021/01/28 09:39:04;;;;;;;13.25;8.30;;;;;;;;;;5040847;28;20068;-62
2021/01/28 09:41:34;;;;;;;18.50;7.32;;;;;;;;;;5062347;28;20038;-61
2021/01/28 09:44:01;;;;;;;15.05;7.53;;;;;;;;;;5059208;28;20039;-62
2021/01/28 09:46:30;;;;;;;16.00;8.43;;;;;;;;;;5058503;28;20035;-62
2021/01/28 09:48:58;;;;;;;12.48;7.40;;;;;;;;;;5062644;28;20019;-61
2021/01/28 09:51:34;;;;;;;17.13;8.73;;;;;;;;;;5062642;28;20028;-62
2021/01/28 09:54:23;;;;;;;14.23;6.82;;;;;;;;;;5062415;28;20062;-62
2021/01/28 09:56:49;;;;;;;18.13;9.65;;;;;;;;;;5057185;28;20667;-62
2021/01/28 09:59:15;;;;;;;27.02;12.05;;;;;;;;;;5059644;28;20101;-62
2021/01/28 10:01:50;;;;;;;25.98;14.20;;;;;;;;;;5061417;28;20032;-63
2021/01/28 10:04:16;;;;;;;19.90;11.82;;;;;;;;;;5056049;28;20111;-63
2021/01/28 10:06:43;;;;;;;17.42;9.27;;;;;;;;;;5060746;28;20031;-62
2021/01/28 10:09:09;;;;;;;12.13;7.10;;;;;;;;;;5057120;28;20035;-63
2021/01/28 10:11:36;;;;;;;16.17;10.52;;;;;;;;;;5057865;28;20102;-62
2021/01/28 10:14:02;;;;;;;15.50;7.55;;;;;;;;;;5058438;28;20803;-62
2021/01/28 10:16:29;;;;;;;19.52;10.23;;;;;;;;;;5060797;28;20043;-63
2021/01/28 10:18:55;;;;;;;21.23;9.25;;;;;;;;;;5059749;28;20124;-63
2021/01/28 10:21:22;;;;;;;9.57;5.55;;;;;;;;;;5061785;28;20028;-63
2021/01/28 10:23:48;;;;;;;17.65;9.05;;;;;;;;;;5061463;28;20050;-62
2021/01/28 10:26:14;;;;;;;13.82;7.45;;;;;;;;;;5061073;28;20127;-62
2021/01/28 10:28:40;;;;;;;14.77;8.20;;;;;;;;;;5062936;28;20040;-61
2021/01/28 10:31:07;;;;;;;18.73;8.02;;;;;;;;;;5051747;28;20028;-60
2021/01/28 10:33:33;;;;;;;20.52;8.95;;;;;;;;;;5057582;28;21132;-62
2021/01/28 10:36:00;;;;;;;13.93;7.85;;;;;;;;;;5059040;28;20024;-61
2021/01/28 10:38:26;;;;;;;15.95;8.27;;;;;;;;;;5059848;28;20042;-61
2021/01/28 10:40:53;;;;;;;12.32;6.57;;;;;;;;;;5056934;28;20031;-62
2021/01/28 10:43:20;;;;;;;16.67;8.98;;;;;;;;;;5058733;28;20586;-62
2021/01/28 10:45:47;;;;;;;18.65;8.40;;;;;;;;;;5053518;28;20163;-61
2021/01/28 10:48:15;;;;;;;16.45;8.13;;;;;;;;;;5057867;28;20032;-61
2021/01/28 10:50:41;;;;;;;12.60;5.88;;;;;;;;;;5060872;28;20039;-62
2021/01/28 10:53:08;;;;;;;27.17;8.85;;;;;;;;;;5062297;28;20020;-62
2021/01/28 10:55:35;;;;;;;19.33;8.32;;;;;;;;;;5059619;28;20577;-61
2021/01/28 10:58:01;;;;;;;13.07;7.50;;;;;;;;;;5054432;28;20531;-64
2021/01/28 11:00:28;;;;;;;11.00;5.32;;;;;;;;;;5054359;28;20348;-63
2021/01/28 11:02:54;;;;;;;21.27;6.15;;;;;;;;;;5056497;28;20063;-62
2021/01/28 11:05:26;;;;;;;16.45;6.28;;;;;;;;;;5056950;28;20024;-61
2021/01/28 11:07:53;;;;;;;11.10;5.57;;;;;;;;;;5057933;28;20031;-61
2021/01/28 11:10:20;;;;;;;11.45;5.18;;;;;;;;;;5056045;28;20035;-61
2021/01/28 11:12:46;;;;;;;16.30;7.00;;;;;;;;;;5054352;28;20069;-62
2021/01/28 11:15:14;;;;;;;14.57;5.47;;;;;;;;;;5060341;28;20075;-61
2021/01/28 11:17:40;;;;;;;14.90;5.68;;;;;;;;;;5060287;28;20072;-61
2021/01/28 11:20:07;;;;;;;19.63;9.52;;;;;;;;;;5059378;28;20307;-62
2021/01/28 11:22:33;;;;;;;13.23;5.97;;;;;;;;;;5059522;28;20020;-62
2021/01/28 11:24:59;;;;;;;19.73;7.50;;;;;;;;;;5075870;28;20033;-62
2021/01/28 11:27:26;;;;;;;22.60;9.75;;;;;;;;;;5109780;28;20402;-62
2021/01/28 11:29:52;;;;;;;16.48;8.77;;;;;;;;;;5110917;28;20498;-61
2021/01/28 11:32:18;;;;;;;10.57;5.18;;;;;;;;;;5109198;28;20023;-66
2021/01/28 11:34:44;;;;;;;14.57;8.10;;;;;;;;;;5110142;28;20102;-67
2021/01/28 11:37:10;;;;;;;18.30;10.82;;;;;;;;;;5110422;28;20099;-67
2021/01/28 11:39:36;;;;;;;16.85;8.13;;;;;;;;;;5110297;28;20027;-67
2021/01/28 11:42:03;;;;;;;28.83;12.38;;;;;;;;;;5110830;28;20023;-66
2021/01/28 11:44:29;;;;;;;14.88;6.38;;;;;;;;;;5111333;28;20028;-65
2021/01/28 11:46:56;;;;;;;19.00;11.30;;;;;;;;;;5111747;28;20475;-66
2021/01/28 11:49:22;;;;;;;13.80;7.32;;;;;;;;;;5112341;28;20441;-65
2021/01/28 11:51:48;;;;;;;16.55;9.23;;;;;;;;;;5112345;28;20373;-66
2021/01/28 11:54:15;;;;;;;13.02;6.90;;;;;;;;;;5112008;28;20019;-66
2021/01/28 11:56:42;;;;;;;13.00;7.47;;;;;;;;;;5110998;28;20019;-66
2021/01/28 11:59:08;;;;;;;12.77;5.70;;;;;;;;;;5110983;28;20084;-65
2021/01/28 12:01:34;;;;;;;11.93;5.72;;;;;;;;;;5111778;28;20372;-66
2021/01/28 12:04:00;;;;;;;12.98;4.95;;;;;;;;;;5111949;28;20023;-65
2021/01/28 12:06:43;;;;;;;10.10;4.68;;;;;;;;;;5109784;27;20131;-68
2021/01/28 12:09:09;;;;;;;9.45;4.40;;;;;;;;;;5108125;28;20028;-68
2021/01/28 12:11:35;;;;;;;13.55;6.00;;;;;;;;;;5109988;28;20026;-68
2021/01/28 12:14:02;;;;;;;12.00;5.32;;;;;;;;;;5109990;28;20418;-71
2021/01/28 12:16:28;;;;;;;12.68;5.93;;;;;;;;;;5108563;28;20020;-68
2021/01/28 12:18:54;;;;;;;12.90;6.25;;;;;;;;;;5108537;28;20024;-70
2021/01/28 12:21:21;;;;;;;12.38;5.90;;;;;;;;;;5108871;28;20096;-67
2021/01/28 12:23:48;;;;;;;10.60;5.72;;;;;;;;;;5109042;28;20432;-66
2021/01/28 12:26:14;;;;;;;12.38;5.93;;;;;;;;;;5109607;28;20032;-66
2021/01/28 12:28:40;;;;;;;10.73;4.97;;;;;;;;;;5109046;28;20091;-66
2021/01/28 12:31:06;;;;;;;10.57;3.92;;;;;;;;;;5107680;28;20020;-67
2021/01/28 12:33:33;;;;;;;9.98;4.88;;;;;;;;;;5107946;28;20015;-68
2021/01/28 12:35:59;;;;;;;14.60;6.68;;;;;;;;;;5109367;28;20027;-68
2021/01/28 12:38:26;;;;;;;19.65;9.32;;;;;;;;;;5109463;28;20090;-68
2021/01/28 12:40:52;;;;;;;24.63;12.15;;;;;;;;;;5109412;28;20031;-67
2021/01/28 12:43:18;;;;;;;15.43;9.07;;;;;;;;;;5108882;28;20033;-68
2021/01/28 12:45:44;;;;;;;16.48;7.28;;;;;;;;;;5109121;28;20035;-67
2021/01/28 12:48:11;;;;;;;11.23;5.55;;;;;;;;;;5108947;28;20020;-68
2021/01/28 12:50:37;;;;;;;10.35;5.55;;;;;;;;;;5108596;28;20028;-67
2021/01/28 12:53:03;;;;;;;9.70;4.10;;;;;;;;;;5109481;28;20098;-68
2021/01/28 12:55:29;;;;;;;10.88;4.88;;;;;;;;;;5109198;28;20020;-67
2021/01/28 12:57:55;;;;;;;11.07;5.03;;;;;;;;;;5107773;28;20020;-65
2021/01/28 13:00:23;;;;;;;12.18;5.05;;;;;;;;;;5107515;28;20430;-66
2021/01/28 13:02:49;;;;;;;13.15;5.93;;;;;;;;;;5106769;28;20717;-67
2021/01/28 13:05:15;;;;;;;13.25;6.45;;;;;;;;;;5117323;28;20056;-67
2021/01/28 13:09:10;;;;;;;16.33;8.02;;;;;;;;;;5068122;28;20387;-67
2021/01/28 13:11:36;;;;;;;18.67;9.88;;;;;;;;;;5068525;28;20032;-67
2021/01/28 13:14:03;;;;;;;16.10;7.72;;;;;;;;;;5068931;28;20017;-67
2021/01/28 13:16:29;;;;;;;13.07;6.70;;;;;;;;;;5069348;28;20046;-67
2021/01/28 13:18:55;;;;;;;16.50;7.32;;;;;;;;;;5069019;28;20029;-67
2021/01/28 13:22:38;;;;;;;12.45;5.32;;;;;;;;;;5069293;28;20780;-68
2021/01/28 13:25:05;;;;;;;12.23;4.75;;;;;;;;;;5068798;28;20025;-69
2021/01/28 13:27:33;;;;;;;12.30;5.70;;;;;;;;;;5069467;28;20066;-70
2021/01/28 13:29:59;;;;;;;12.07;5.47;;;;;;;;;;5051438;28;20477;-71
2021/01/28 13:32:25;;;;;;;9.82;5.55;;;;;;;;;;5067322;28;20035;-71
2021/01/28 13:34:52;;;;;;;11.88;5.70;;;;;;;;;;5067414;28;20025;-71
2021/01/28 13:37:18;;;;;;;8.73;3.83;;;;;;;;;;5068257;28;20032;-71
2021/01/28 13:39:44;;;;;;;8.45;4.15;;;;;;;;;;5066876;28;20039;-70
2021/01/28 13:42:10;;;;;;;10.10;4.38;;;;;;;;;;5050553;28;20109;-70
2021/01/28 13:44:37;;;;;;;14.50;6.38;;;;;;;;;;5068566;28;20024;-70
2021/01/28 13:47:04;;;;;;;23.80;9.90;;;;;;;;;;5050223;28;20029;-70
2021/01/28 13:49:30;;;;;;;15.70;8.45;;;;;;;;;;5069252;28;20557;-71
2021/01/28 13:51:56;;;;;;;22.25;10.18;;;;;;;;;;5067897;28;20080;-71
2021/01/28 13:54:25;;;;;;;18.30;8.10;;;;;;;;;;5068732;28;20021;-69
2021/01/28 13:56:51;;;;;;;23.50;12.20;;;;;;;;;;5050974;28;20025;-70
2021/01/28 13:59:18;;;;;;;26.20;13.90;;;;;;;;;;5068797;28;20066;-68
2021/01/28 14:01:44;;;;;;;16.75;9.25;;;;;;;;;;5068269;28;20029;-70
2021/01/28 14:04:10;;;;;;;19.38;12.05;;;;;;;;;;5066755;28;20024;-69
2021/01/28 14:06:36;;;;;;;11.90;4.43;;;;;;;;;;5066271;28;20048;-69
2021/01/28 14:09:03;;;;;;;8.90;4.68;;;;;;;;;;5048659;28;20029;-69
2021/01/28 14:11:29;;;;;;;7.95;4.25;;;;;;;;;;5066819;28;20036;-68
2021/01/28 14:13:55;;;;;;;11.73;5.05;;;;;;;;;;5048273;28;20017;-69
2021/01/28 14:16:21;;;;;;;11.48;5.60;;;;;;;;;;5066413;28;20042;-69
2021/01/28 14:18:47;;;;;;;16.42;8.45;;;;;;;;;;5068186;28;20020;-69
2021/01/28 14:21:13;;;;;;;13.63;8.15;;;;;;;;;;5067814;28;20045;-69
2021/01/28 14:23:40;;;;;;;15.85;7.53;;;;;;;;;;5050566;28;20021;-69
2021/01/28 14:26:06;;;;;;;20.38;10.68;;;;;;;;;;5068458;28;20234;-68
2021/01/28 14:28:32;;;;;;;22.77;13.07;;;;;;;;;;5068504;28;20306;-69
2021/01/28 14:30:58;;;;;;;20.90;11.38;;;;;;;;;;5050652;28;20029;-69
2021/01/28 14:35:00;;;;;;;23.45;8.65;;;;;;;;;;5109910;27;20385;-71
2021/01/28 14:37:26;;;;;;;20.67;9.80;;;;;;;;;;5110251;28;20035;-71
2021/01/28 14:39:53;;;;;;;14.38;8.55;;;;;;;;;;5110207;28;20028;-71
2021/01/28 14:42:20;;;;;;;18.95;11.18;;;;;;;;;;5109757;28;20107;-70